Time;durP1;ratioP1;P1;durP2;ratioP2;P2;SDS_P1;SDS_P2;PMS_P1;PMS_P2;Temp;Humidity;BMP_temperature;BMP_pressure;BME280_temperature;BME280_humidity;BME280_pressure;Samples;Min_cycle;Max_cycle;Signal;HPM_P1;HPM_P2
2022/05/27 00:01:12;;;;;;;20.57;3.23;;;;;;;14.11;100.00;101770.50;5016211;28;20427;-80
2022/05/27 00:03:40;;;;;;;8.03;2.40;;;;;;;14.15;100.00;101764.50;5018510;28;20466;-77
2022/05/27 00:06:06;;;;;;;11.23;2.70;;;;;;;13.95;100.00;101709.63;5017857;28;20455;-79
2022/05/27 00:08:32;;;;;;;9.33;2.80;;;;;;;14.06;100.00;101772.94;5015131;28;20438;-78
2022/05/27 00:11:02;;;;;;;9.07;2.70;;;;;;;14.14;100.00;101768.22;5016294;28;20200;-76
2022/05/27 00:13:28;;;;;;;13.03;3.20;;;;;;;14.09;100.00;101761.75;5015215;28;20898;-77
2022/05/27 00:15:58;;;;;;;9.00;2.90;;;;;;;13.78;100.00;101723.44;5021357;28;20813;-77
2022/05/27 00:18:26;;;;;;;8.23;2.50;;;;;;;13.92;100.00;101716.25;5013610;28;21183;-78
2022/05/27 00:20:52;;;;;;;12.23;2.90;;;;;;;13.69;100.00;101683.34;5019312;28;20443;-79
2022/05/27 00:23:18;;;;;;;9.20;2.20;;;;;;;14.16;100.00;101744.56;5020297;28;20996;-80
2022/05/27 00:25:44;;;;;;;14.40;2.40;;;;;;;13.97;100.00;101724.59;5018641;28;20451;-78
2022/05/27 00:28:13;;;;;;;11.40;2.60;;;;;;;13.01;100.00;101586.91;5020902;28;20562;-75
2022/05/27 00:30:38;;;;;;;7.40;2.17;;;;;;;13.96;100.00;101741.78;5023161;28;20223;-75
2022/05/27 00:33:05;;;;;;;9.90;2.23;;;;;;;13.91;100.00;101732.63;5017776;28;20963;-75
2022/05/27 00:35:30;;;;;;;9.00;2.93;;;;;;;13.70;100.00;101728.97;5019284;28;20235;-74
2022/05/27 00:37:57;;;;;;;7.90;2.47;;;;;;;13.70;100.00;101704.72;5018931;28;20628;-76
2022/05/27 00:40:24;;;;;;;8.93;2.80;;;;;;;13.32;100.00;101629.63;5019431;28;20181;-79
2022/05/27 00:42:50;;;;;;;12.67;2.67;;;;;;;13.44;100.00;101666.81;5019164;28;20451;-78
2022/05/27 00:45:20;;;;;;;10.50;2.37;;;;;;;13.45;100.00;101690.03;5016858;28;20798;-77
2022/05/27 00:47:48;;;;;;;6.97;2.10;;;;;;;12.74;100.00;101587.75;5020414;28;21808;-74
2022/05/27 00:50:17;;;;;;;11.00;2.80;;;;;;;13.55;100.00;101725.56;5019191;28;20462;-76
2022/05/27 00:52:45;;;;;;;8.10;2.73;;;;;;;12.93;100.00;101632.00;5015944;28;20442;-78
2022/05/27 00:55:17;;;;;;;9.73;2.50;;;;;;;13.33;100.00;101698.66;5018238;28;20485;-77
2022/05/27 00:58:05;;;;;;;9.03;2.23;;;;;;;13.50;100.00;101738.78;5020661;28;20470;-77
2022/05/27 01:00:31;;;;;;;8.87;2.67;;;;;;;13.36;100.00;101721.69;5016470;28;20481;-73
2022/05/27 01:02:58;;;;;;;7.43;2.03;;;;;;;12.96;100.00;101655.84;5024913;28;20818;-77
2022/05/27 01:05:25;;;;;;;5.90;1.67;;;;;;;13.05;100.00;101681.63;5025166;28;20199;-77
2022/05/27 01:07:56;;;;;;;10.03;2.70;;;;;;;13.28;100.00;101721.84;5023140;28;20579;-77
2022/05/27 01:10:23;;;;;;;16.10;2.50;;;;;;;13.25;100.00;101731.16;5023720;28;20455;-78
2022/05/27 01:13:12;;;;;;;7.47;2.13;;;;;;;13.33;100.00;101735.53;5026050;28;20442;-79
2022/05/27 01:15:54;;;;;;;10.40;2.80;;;;;;;13.35;100.00;101728.09;5020678;28;20528;-79
2022/05/27 01:21:46;;;;;;;7.60;1.90;;;;;;;12.85;100.00;101646.44;5018253;28;20431;-78
2022/05/27 01:24:34;;;;;;;10.90;2.70;;;;;;;13.43;100.00;101740.59;5020082;28;20435;-76
2022/05/27 01:27:07;;;;;;;5.10;2.20;;;;;;;13.40;100.00;101732.91;5036839;28;20462;-76
2022/05/27 01:29:43;;;;;;;9.00;2.33;;;;;;;13.28;100.00;101727.22;5021331;28;20458;-79
2022/05/27 01:32:19;;;;;;;5.20;1.67;;;;;;;13.37;100.00;101720.66;5023753;28;20950;-78
2022/05/27 01:34:53;;;;;;;5.13;1.77;;;;;;;13.22;100.00;101725.25;5023936;28;20430;-77
2022/05/27 01:37:47;;;;;;;5.30;1.83;;;;;;;13.13;100.00;101735.34;5021381;28;20974;-77
2022/05/27 01:40:40;;;;;;;5.17;1.60;;;;;;;13.03;100.00;101703.34;5017348;28;20465;-79
2022/05/27 01:43:46;;;;;;;12.07;2.00;;;;;;;13.20;100.00;101730.84;5019705;28;20505;-79
2022/05/27 01:46:25;;;;;;;6.97;1.90;;;;;;;13.25;100.00;101732.94;4942774;28;20450;-77
2022/05/27 01:49:20;;;;;;;8.20;2.47;;;;;;;13.27;100.00;101723.69;5013992;28;20439;-78
2022/05/27 01:51:54;;;;;;;8.83;1.70;;;;;;;13.08;100.00;101709.00;5020201;28;20927;-78
2022/05/27 01:54:28;;;;;;;6.30;1.90;;;;;;;13.01;100.00;101724.25;5019000;28;20458;-77
2022/05/27 01:56:57;;;;;;;10.77;2.57;;;;;;;13.11;100.00;101730.16;5020555;28;20461;-77
2022/05/27 01:59:35;;;;;;;7.13;1.83;;;;;;;13.05;100.00;101722.84;5020632;28;20439;-78
2022/05/27 02:02:07;;;;;;;12.00;2.60;;;;;;;12.95;100.00;101698.09;5023612;28;20434;-78
2022/05/27 02:04:39;;;;;;;10.97;2.60;;;;;;;12.96;100.00;101712.41;5020321;28;20446;-80
2022/05/27 02:07:19;;;;;;;4.00;1.57;;;;;;;13.07;100.00;101731.56;5019048;28;20842;-78
2022/05/27 02:09:54;;;;;;;10.40;1.83;;;;;;;12.68;100.00;101682.75;5016340;28;20459;-77
2022/05/27 02:12:39;;;;;;;8.97;2.13;;;;;;;13.02;100.00;101735.88;5017445;28;20430;-77
2022/05/27 02:15:15;;;;;;;8.97;2.00;;;;;;;12.41;100.00;101675.22;5020468;28;20435;-78
2022/05/27 02:17:52;;;;;;;8.87;2.50;;;;;;;12.94;100.00;101747.59;5018905;28;20481;-77
2022/05/27 02:20:23;;;;;;;12.80;2.20;;;;;;;12.89;100.00;101733.88;5020602;28;20811;-79
2022/05/27 02:22:57;;;;;;;6.10;1.93;;;;;;;12.54;100.00;101698.75;5022011;28;20861;-77
2022/05/27 02:25:30;;;;;;;6.07;1.93;;;;;;;12.24;100.00;101665.72;5021157;28;20435;-79
2022/05/27 02:28:17;;;;;;;9.27;2.60;;;;;;;12.75;100.00;101740.16;5018025;28;20553;-76
2022/05/27 02:30:46;;;;;;;6.23;2.17;;;;;;;12.93;100.00;101739.72;5021889;28;20502;-78
2022/05/27 02:36:09;;;;;;;8.93;2.60;;;;;;;12.52;100.00;101716.94;5015466;28;20520;-77
2022/05/27 02:38:35;;;;;;;6.07;1.80;;;;;;;12.61;100.00;101726.56;5017804;28;20446;-76
2022/05/27 02:41:28;;;;;;;4.97;1.60;;;;;;;12.74;100.00;101736.63;5021047;28;20434;-77
2022/05/27 02:44:02;;;;;;;13.50;2.20;;;;;;;12.56;100.00;101702.09;5015474;28;20250;-76
2022/05/27 02:46:53;;;;;;;6.43;1.80;;;;;;;12.49;100.00;101678.81;5012712;28;20462;-77
2022/05/27 02:49:34;;;;;;;10.87;2.17;;;;;;;12.52;100.00;101695.41;5019768;28;20895;-75
2022/05/27 02:52:29;;;;;;;3.50;1.60;;;;;;;12.37;100.00;101654.25;5022334;28;20439;-77
2022/05/27 02:55:06;;;;;;;7.97;1.93;;;;;;;12.82;100.00;101714.16;5017926;28;20442;-75
2022/05/27 02:57:46;;;;;;;8.60;2.37;;;;;;;12.77;100.00;101713.88;5015374;28;20463;-76
2022/05/27 03:00:17;;;;;;;12.90;2.43;;;;;;;12.52;100.00;101703.47;5020748;28;20439;-77
2022/05/27 03:02:43;;;;;;;6.73;2.00;;;;;;;11.44;100.00;101511.53;5018614;28;20435;-75
2022/05/27 03:05:09;;;;;;;9.90;1.63;;;;;;;11.33;100.00;101514.69;5016535;28;20442;-74
2022/05/27 03:07:49;;;;;;;8.00;1.77;;;;;;;12.53;100.00;101699.78;5018399;28;21014;-75
2022/05/27 03:10:32;;;;;;;7.27;2.00;;;;;;;12.27;100.00;101641.13;5019300;28;20491;-74
2022/05/27 03:13:23;;;;;;;6.60;1.70;;;;;;;12.79;100.00;101718.06;5018497;28;23389;-75
2022/05/27 03:16:10;;;;;;;9.57;1.90;;;;;;;12.64;100.00;101720.81;5015493;28;20650;-75
2022/05/27 03:18:46;;;;;;;7.63;2.30;;;;;;;12.40;100.00;101727.34;5022343;28;20493;-74
2022/05/27 03:21:20;;;;;;;7.17;2.30;;;;;;;12.01;100.00;101681.16;5018894;28;20507;-76
2022/05/27 03:24:19;;;;;;;6.50;2.20;;;;;;;12.55;100.00;101729.16;5020843;28;20445;-75
2022/05/27 03:27:17;;;;;;;6.73;2.47;;;;;;;12.31;100.00;101741.09;5017798;28;20551;-76
2022/05/27 03:29:53;;;;;;;7.23;2.43;;;;;;;12.36;100.00;101752.97;5020770;28;20455;-75
2022/05/27 03:33:13;;;;;;;5.27;1.80;;;;;;;12.37;100.00;101760.00;5018715;28;20453;-77
2022/05/27 03:35:54;;;;;;;7.73;2.10;;;;;;;11.64;100.00;101664.09;4984728;28;20580;-76
2022/05/27 03:38:30;;;;;;;9.23;2.13;;;;;;;12.42;100.00;101762.97;5019924;28;20504;-73
2022/05/27 03:41:04;;;;;;;7.00;2.03;;;;;;;11.80;100.00;101671.13;5017242;28;20495;-76
2022/05/27 03:43:32;;;;;;;12.87;2.37;;;;;;;12.14;100.00;101722.47;5018181;28;20530;-77
2022/05/27 03:46:00;;;;;;;10.10;1.97;;;;;;;11.96;100.00;101692.47;5017610;28;20450;-76
2022/05/27 03:48:27;;;;;;;5.97;1.80;;;;;;;12.39;100.00;101749.91;5016984;28;20463;-76
2022/05/27 03:50:58;;;;;;;7.70;2.00;;;;;;;12.42;100.00;101744.16;5018383;28;20459;-75
2022/05/27 03:54:03;;;;;;;7.10;1.67;;;;;;;11.42;100.00;101580.72;5018584;28;20447;-78
2022/05/27 03:56:12;;;;;;;8.50;1.77;;;;;;;11.54;100.00;101598.03;5018687;28;21257;-75
2022/05/27 03:58:37;;;;;;;10.83;2.17;;;;;;;12.42;100.00;101709.16;5016324;28;20462;-76
2022/05/27 04:01:03;;;;;;;8.00;2.10;;;;;;;11.86;100.00;101652.44;5019930;28;20195;-77
2022/05/27 04:03:28;;;;;;;8.47;2.00;;;;;;;12.12;100.00;101694.97;5016322;28;20179;-78
2022/05/27 04:05:54;;;;;;;9.50;2.17;;;;;;;12.41;100.00;101747.88;5012674;28;20173;-76
2022/05/27 04:08:19;;;;;;;8.47;2.70;;;;;;;12.12;100.00;101662.69;5019287;28;20208;-75
2022/05/27 04:10:44;;;;;;;8.87;2.40;;;;;;;12.41;100.00;101745.19;5018199;28;20200;-77
2022/05/27 04:13:10;;;;;;;11.30;2.17;;;;;;;12.35;100.00;101719.03;5011392;28;20252;-77
2022/05/27 04:15:35;;;;;;;8.73;2.00;;;;;;;11.92;100.00;101649.00;5015673;28;20218;-75
2022/05/27 04:18:01;;;;;;;5.50;2.20;;;;;;;12.41;100.00;101710.19;5018642;28;20208;-77
2022/05/27 04:20:26;;;;;;;8.33;2.30;;;;;;;12.77;100.00;101736.25;5018422;28;20209;-78
2022/05/27 04:22:55;;;;;;;10.70;3.07;;;;;;;12.74;100.00;101733.94;5014135;28;20188;-76
2022/05/27 04:25:21;;;;;;;6.93;1.90;;;;;;;12.74;100.00;101742.00;5015264;28;20177;-77
2022/05/27 04:27:47;;;;;;;6.77;1.80;;;;;;;12.65;100.00;101735.09;5021420;28;20475;-75
2022/05/27 04:30:13;;;;;;;9.73;2.53;;;;;;;11.51;100.00;101605.63;5020734;28;21009;-76
2022/05/27 04:32:39;;;;;;;7.20;2.33;;;;;;;12.68;100.00;101744.66;5015786;28;20192;-75
2022/05/27 04:35:06;;;;;;;7.23;2.40;;;;;;;11.76;100.00;101646.47;5018045;28;20940;-75
2022/05/27 04:37:32;;;;;;;12.43;2.83;;;;;;;12.32;100.00;101714.00;5018216;28;21286;-77
2022/05/27 04:39:57;;;;;;;14.13;3.40;;;;;;;12.31;100.00;101725.78;5022974;28;20454;-76
2022/05/27 04:42:23;;;;;;;4.67;1.87;;;;;;;12.76;100.00;101758.00;5021039;28;20348;-75
2022/05/27 04:44:48;;;;;;;10.00;2.17;;;;;;;12.34;100.00;101698.50;5020537;28;20210;-75
2022/05/27 04:47:17;;;;;;;14.33;3.17;;;;;;;11.91;100.00;101694.88;5020115;28;20200;-79
2022/05/27 04:49:51;;;;;;;11.77;3.00;;;;;;;12.30;100.00;101751.03;5017952;28;20262;-76
2022/05/27 04:52:24;;;;;;;9.43;2.40;;;;;;;12.44;100.00;101758.25;5018985;28;20430;-75
2022/05/27 04:54:50;;;;;;;8.17;2.93;;;;;;;11.97;100.00;101668.06;5015923;28;20434;-77
2022/05/27 04:57:21;;;;;;;5.83;1.90;;;;;;;12.58;100.00;101761.94;5017473;28;20862;-77
2022/05/27 04:59:49;;;;;;;7.87;1.90;;;;;;;12.08;100.00;101649.81;5019616;28;20528;-77
2022/05/27 05:02:16;;;;;;;13.10;2.63;;;;;;;12.03;100.00;101668.34;5019354;28;20439;-75
2022/05/27 05:04:41;;;;;;;10.00;2.27;;;;;;;12.80;100.00;101757.41;5014742;28;20512;-75
2022/05/27 05:07:08;;;;;;;12.00;2.20;;;;;;;12.80;100.00;101772.72;5017241;28;20508;-75
2022/05/27 05:09:38;;;;;;;7.23;2.67;;;;;;;12.82;100.00;101774.22;5015167;28;20197;-75
2022/05/27 05:12:05;;;;;;;5.93;2.30;;;;;;;12.74;100.00;101776.19;5020926;28;20443;-79
2022/05/27 05:14:31;;;;;;;10.20;2.40;;;;;;;12.38;100.00;101759.00;5016343;28;20568;-75
2022/05/27 05:16:59;;;;;;;6.63;2.50;;;;;;;12.10;100.00;101666.59;5020597;28;21033;-77
2022/05/27 05:19:25;;;;;;;8.90;2.63;;;;;;;12.47;100.00;101715.81;5018154;28;20203;-76
2022/05/27 05:21:50;;;;;;;7.90;2.03;;;;;;;12.43;100.00;101724.28;5020560;28;20435;-75
2022/05/27 05:24:16;;;;;;;8.37;2.13;;;;;;;11.67;100.00;101591.16;5015491;28;20453;-75
2022/05/27 05:26:41;;;;;;;9.30;2.77;;;;;;;12.66;100.00;101766.34;5018911;28;20278;-75
2022/05/27 05:29:07;;;;;;;7.50;2.43;;;;;;;12.66;100.00;101734.88;5016293;28;20188;-76
2022/05/27 05:31:36;;;;;;;11.47;2.97;;;;;;;12.76;100.00;101750.75;5014415;28;20181;-76
2022/05/27 05:34:02;;;;;;;7.93;2.43;;;;;;;12.42;100.00;101686.81;5019035;28;20183;-77
2022/05/27 05:36:29;;;;;;;8.50;2.40;;;;;;;12.59;100.00;101679.34;5018075;28;20477;-79
2022/05/27 05:38:55;;;;;;;12.53;3.10;;;;;;;12.85;100.00;101754.16;5016930;28;20435;-72
2022/05/27 05:41:40;;;;;;;17.43;4.23;;;;;;;12.53;100.00;101701.63;5021399;28;20443;-75
2022/05/27 05:44:08;;;;;;;9.77;2.87;;;;;;;12.06;100.00;101636.53;5017959;28;20180;-74
2022/05/27 05:46:36;;;;;;;13.70;3.70;;;;;;;12.94;100.00;101746.78;5017612;28;20517;-78
2022/05/27 05:49:02;;;;;;;14.10;3.03;;;;;;;12.99;100.00;101736.25;5014664;28;20447;-72
2022/05/27 05:51:28;;;;;;;8.97;2.83;;;;;;;13.00;100.00;101746.00;5016983;28;20451;-71
2022/05/27 05:53:54;;;;;;;18.10;3.60;;;;;;;13.03;100.00;101749.13;5015881;28;20541;-71
2022/05/27 05:56:20;;;;;;;9.93;3.03;;;;;;;12.75;100.00;101681.75;5014295;28;20311;-72
2022/05/27 05:58:48;;;;;;;10.10;3.03;;;;;;;13.11;100.00;101715.88;5013684;28;20457;-72
2022/05/27 06:01:14;;;;;;;17.23;3.20;;;;;;;13.11;100.00;101726.63;5018064;28;20446;-72
2022/05/27 06:03:39;;;;;;;8.70;2.63;;;;;;;13.22;100.00;101741.41;5018935;28;20935;-69
2022/05/27 06:06:05;;;;;;;17.43;3.40;;;;;;;13.13;100.00;101716.47;5019365;28;20185;-73
2022/05/27 06:08:31;;;;;;;12.43;3.20;;;;;;;13.12;100.00;101739.06;5020639;28;20211;-75
2022/05/27 06:10:57;;;;;;;9.63;3.50;;;;;;;13.20;100.00;101747.03;5018330;28;20204;-74
2022/05/27 06:13:23;;;;;;;6.40;2.80;;;;;;;13.19;100.00;101741.81;5020480;28;20946;-72
2022/05/27 06:15:48;;;;;;;13.23;3.30;;;;;;;12.76;100.00;101667.28;5017031;28;20181;-73
2022/05/27 06:18:15;;;;;;;22.37;3.97;;;;;;;13.00;100.00;101724.47;5018917;28;20532;-72
2022/05/27 06:20:41;;;;;;;13.23;3.10;;;;;;;12.75;100.00;101675.53;5021180;28;20180;-80
2022/05/27 06:23:07;;;;;;;17.60;3.80;;;;;;;13.25;100.00;101759.88;5024101;28;20986;-86
2022/05/27 06:25:33;;;;;;;13.10;3.00;;;;;;;13.24;100.00;101774.41;5017104;28;20489;-88
2022/05/27 06:36:23;;;;;;;10.10;2.40;;;;;;;13.45;100.00;101770.88;5032990;28;20434;-87
2022/05/27 06:38:48;;;;;;;6.50;2.50;;;;;;;13.36;100.00;101739.72;5027372;28;20794;-85
2022/05/27 06:41:15;;;;;;;8.10;3.20;;;;;;;13.33;100.00;101684.34;5031732;28;20172;-89
2022/05/27 06:43:45;;;;;;;9.30;2.70;;;;;;;13.30;100.00;101717.91;5033799;28;20238;-90
2022/05/27 06:46:14;;;;;;;17.83;3.10;;;;;;;13.57;100.00;101756.69;5033917;28;20446;-90
2022/05/27 06:48:40;;;;;;;20.90;4.30;;;;;;;12.55;100.00;101633.13;5035450;28;20952;-85
2022/05/27 06:51:06;;;;;;;21.10;4.00;;;;;;;13.24;100.00;101772.53;5028085;28;20470;-87
2022/05/27 06:53:32;;;;;;;11.60;3.20;;;;;;;12.34;100.00;101636.63;5033368;28;20779;-83
2022/05/27 06:56:00;;;;;;;9.30;3.10;;;;;;;12.35;100.00;101640.16;5030117;28;20423;-90
2022/05/27 06:58:26;;;;;;;11.30;3.67;;;;;;;13.12;100.00;101766.00;5019902;28;20224;-84
2022/05/27 07:00:54;;;;;;;12.47;3.27;;;;;;;13.17;100.00;101778.91;5031350;28;20485;-90
2022/05/27 07:03:20;;;;;;;13.07;3.33;;;;;;;12.61;100.00;101677.28;5029137;28;20202;-85
2022/05/27 07:05:48;;;;;;;10.30;3.30;;;;;;;12.53;100.00;101637.06;5035597;28;20904;-89
2022/05/27 07:08:14;;;;;;;16.47;2.80;;;;;;;12.95;100.00;101713.44;5037153;28;20232;-88
2022/05/27 07:10:39;;;;;;;12.97;3.50;;;;;;;13.63;100.00;101767.72;5027342;28;20490;-86
2022/05/27 07:13:05;;;;;;;14.73;3.53;;;;;;;12.96;100.00;101712.41;5027200;28;20909;-86
2022/05/27 07:15:34;;;;;;;14.87;3.67;;;;;;;13.01;100.00;101700.00;5026738;28;20184;-85
2022/05/27 07:18:06;;;;;;;11.20;3.03;;;;;;;13.74;100.00;101772.53;5026201;28;20205;-84
2022/05/27 07:20:36;;;;;;;11.00;3.13;;;;;;;13.53;100.00;101776.13;5021640;28;20435;-85
2022/05/27 07:23:08;;;;;;;12.93;3.50;;;;;;;13.43;100.00;101754.09;5025068;28;20469;-85
2022/05/27 07:25:34;;;;;;;16.17;3.30;;;;;;;13.65;100.00;101781.81;5025812;28;20429;-84
2022/05/27 07:28:03;;;;;;;10.47;3.00;;;;;;;13.56;100.00;101770.34;5026645;28;20515;-82
2022/05/27 07:30:29;;;;;;;11.13;2.63;;;;;;;13.50;100.00;101736.09;5028421;28;20476;-86
2022/05/27 07:32:55;;;;;;;10.17;3.10;;;;;;;13.47;100.00;101739.19;5027079;28;20462;-87
2022/05/27 07:35:21;;;;;;;10.70;3.27;;;;;;;13.25;100.00;101744.63;5027184;28;20477;-78
2022/05/27 07:37:47;;;;;;;12.30;3.43;;;;;;;13.34;100.00;101789.25;5024714;28;20192;-79
2022/05/27 07:40:12;;;;;;;15.07;3.37;;;;;;;13.27;100.00;101779.44;5027431;28;20168;-83
2022/05/27 07:42:38;;;;;;;15.10;3.80;;;;;;;13.43;100.00;101760.31;5026789;28;20510;-83
2022/05/27 07:45:05;;;;;;;12.60;3.83;;;;;;;13.16;100.00;101654.13;5027775;28;20176;-85
2022/05/27 07:47:31;;;;;;;15.20;3.13;;;;;;;13.34;100.00;101684.16;5026106;28;20446;-84
2022/05/27 07:49:59;;;;;;;14.13;3.63;;;;;;;13.76;100.00;101779.41;5025312;28;20524;-83
2022/05/27 07:52:25;;;;;;;17.30;3.57;;;;;;;13.38;100.00;101792.38;5027139;28;20195;-82
2022/05/27 07:54:51;;;;;;;18.07;5.93;;;;;;;13.48;100.00;101786.66;5028894;28;20423;-78
2022/05/27 07:57:23;;;;;;;15.37;3.80;;;;;;;12.89;100.00;101721.25;5027256;28;20445;-82
2022/05/27 07:59:54;;;;;;;13.00;4.00;;;;;;;13.84;100.00;101781.13;5029473;28;20415;-83
2022/05/27 08:02:21;;;;;;;13.97;3.77;;;;;;;13.39;100.00;101706.97;5028875;28;20435;-81
2022/05/27 08:04:53;;;;;;;8.27;2.67;;;;;;;13.27;100.00;101666.28;5027270;28;20435;-85
2022/05/27 08:07:19;;;;;;;13.73;3.63;;;;;;;13.81;100.00;101748.34;5027429;28;20880;-83
2022/05/27 08:09:47;;;;;;;14.67;2.30;;;;;;;13.88;100.00;101757.28;5028683;28;20455;-85
2022/05/27 08:12:13;;;;;;;10.00;2.83;;;;;;;13.43;100.00;101746.00;5031638;28;20459;-83
2022/05/27 08:14:38;;;;;;;11.70;3.33;;;;;;;13.67;100.00;101794.06;5032570;28;20522;-81
2022/05/27 08:17:04;;;;;;;14.63;3.40;;;;;;;13.52;100.00;101786.06;5031271;28;20203;-79
2022/05/27 08:19:30;;;;;;;14.20;3.27;;;;;;;12.92;100.00;101711.94;5031475;28;20192;-79
2022/05/27 08:21:56;;;;;;;11.33;3.33;;;;;;;13.66;100.00;101802.38;5032982;28;20480;-85
2022/05/27 08:24:21;;;;;;;7.93;2.37;;;;;;;13.48;100.00;101781.25;5030141;28;20492;-80
2022/05/27 08:26:47;;;;;;;9.10;2.40;;;;;;;13.61;100.00;101791.34;5032562;28;20219;-78
2022/05/27 08:29:16;;;;;;;14.67;2.73;;;;;;;13.66;100.00;101796.97;5029763;28;20527;-77
2022/05/27 08:31:42;;;;;;;9.10;3.00;;;;;;;13.05;100.00;101711.25;5032274;28;20259;-85
2022/05/27 08:39:40;;;;;;;10.60;3.23;;;;;;;13.41;100.00;101781.22;5032150;28;20398;-83
2022/05/27 08:42:30;;;;;;;10.37;2.40;;;;;;;13.66;100.00;101816.69;5031570;28;20422;-85
2022/05/27 08:45:21;;;;;;;14.77;3.20;;;;;;;13.76;100.00;101824.41;5031412;28;20457;-84
2022/05/27 08:47:56;;;;;;;8.80;2.90;;;;;;;13.68;100.00;101830.81;5029447;28;20454;-84
2022/05/27 08:50:35;;;;;;;9.90;3.23;;;;;;;13.65;100.00;101773.72;5040984;28;20462;-82
2022/05/27 08:53:22;;;;;;;15.50;2.80;;;;;;;13.91;100.00;101818.91;5031242;28;20423;-82
2022/05/27 09:01:33;;;;;;;13.03;2.67;;;;;;;13.89;100.00;101818.31;5030870;28;20405;-81
2022/05/27 09:04:11;;;;;;;17.10;4.43;;;;;;;13.97;100.00;101818.97;5031173;28;20431;-80
2022/05/27 09:06:49;;;;;;;14.40;3.47;;;;;;;13.60;100.00;101752.75;5030918;28;20431;-85
2022/05/27 09:09:26;;;;;;;17.27;3.17;;;;;;;13.78;100.00;101812.41;5031886;28;20415;-83
2022/05/27 09:12:05;;;;;;;12.93;3.57;;;;;;;13.73;100.00;101832.91;5031927;28;20458;-81
2022/05/27 09:14:32;;;;;;;14.70;3.23;;;;;;;13.52;100.00;101788.78;5031100;28;20431;-83
2022/05/27 09:17:04;;;;;;;13.70;3.33;;;;;;;13.86;100.00;101821.41;5030450;28;20451;-86
2022/05/27 09:19:44;;;;;;;12.10;3.57;;;;;;;14.06;100.00;101843.94;5028885;28;20521;-79
2022/05/27 09:22:44;;;;;;;11.33;2.60;;;;;;;13.79;100.00;101772.78;5030513;28;20414;-83
2022/05/27 09:25:25;;;;;;;14.27;3.50;;;;;;;14.12;100.00;101831.53;5040694;28;20434;-80
2022/05/27 09:28:12;;;;;;;12.47;3.30;;;;;;;13.92;100.00;101823.31;5030759;28;20541;-83
2022/05/27 09:30:39;;;;;;;9.37;2.73;;;;;;;13.96;100.00;101828.09;5030379;28;20557;-78
2022/05/27 09:33:15;;;;;;;5.63;2.13;;;;;;;14.19;100.00;101817.03;5029571;28;20455;-77
2022/05/27 09:35:42;;;;;;;14.30;3.23;;;;;;;13.78;100.00;101838.53;5025474;28;20447;-81
2022/05/27 09:38:15;;;;;;;13.60;3.37;;;;;;;13.88;100.00;101830.09;5031244;28;20450;-80
2022/05/27 09:40:49;;;;;;;12.03;3.13;;;;;;;13.93;100.00;101835.75;5031812;28;20434;-82
2022/05/27 09:43:36;;;;;;;11.50;3.23;;;;;;;13.79;100.00;101832.94;5029578;28;20787;-80
2022/05/27 09:46:05;;;;;;;10.00;3.97;;;;;;;13.87;100.00;101836.53;5031025;28;20465;-77
2022/05/27 09:48:36;;;;;;;16.60;3.23;;;;;;;14.08;100.00;101839.16;5030111;28;20509;-82
2022/05/27 09:51:05;;;;;;;6.20;2.40;;;;;;;13.92;100.00;101840.31;5028186;28;20894;-76
2022/05/27 09:53:38;;;;;;;11.70;3.13;;;;;;;13.02;100.00;101728.63;5030108;28;20447;-79
2022/05/27 09:56:09;;;;;;;11.80;3.17;;;;;;;13.87;100.00;101860.81;5030380;28;20434;-83
2022/05/27 09:58:41;;;;;;;9.73;2.90;;;;;;;13.73;100.00;101849.06;5028586;28;20518;-84
2022/05/27 10:01:21;;;;;;;12.63;3.53;;;;;;;13.77;100.00;101826.09;5031565;28;20787;-79
2022/05/27 10:04:02;;;;;;;15.90;3.67;;;;;;;13.88;100.00;101854.38;5030981;28;20423;-78
2022/05/27 10:06:34;;;;;;;10.07;3.17;;;;;;;14.23;100.00;101853.38;5029984;28;20458;-80
2022/05/27 10:09:02;;;;;;;20.10;4.63;;;;;;;13.76;100.00;101859.47;5029728;28;20423;-76
2022/05/27 10:11:31;;;;;;;17.23;3.93;;;;;;;13.77;100.00;101861.97;5027351;28;20466;-77
2022/05/27 10:14:18;;;;;;;13.03;3.33;;;;;;;14.16;100.00;101857.91;5032184;28;20509;-80
2022/05/27 10:17:00;;;;;;;15.27;3.20;;;;;;;13.71;100.00;101791.81;5029507;28;20475;-83
2022/05/27 10:19:27;;;;;;;12.03;3.40;;;;;;;14.16;100.00;101838.19;5030732;28;20930;-84
2022/05/27 10:22:00;;;;;;;16.63;3.60;;;;;;;14.25;100.00;101863.97;5029512;28;20431;-78
2022/05/27 10:24:35;;;;;;;13.33;3.27;;;;;;;14.12;100.00;101834.22;5028910;28;20430;-78
2022/05/27 10:27:21;;;;;;;17.10;3.70;;;;;;;14.06;100.00;101880.84;5030266;28;20879;-75
2022/05/27 10:29:58;;;;;;;12.20;4.27;;;;;;;14.04;100.00;101855.97;5026971;28;20462;-79
2022/05/27 10:32:25;;;;;;;14.07;3.47;;;;;;;14.17;100.00;101870.34;5028785;28;20469;-82
2022/05/27 10:34:51;;;;;;;12.33;3.17;;;;;;;13.67;100.00;101794.06;5028521;28;20439;-78
2022/05/27 10:37:17;;;;;;;18.43;3.37;;;;;;;14.74;100.00;101868.41;5027433;28;20454;-83
2022/05/27 10:40:09;;;;;;;9.13;2.67;;;;;;;14.28;100.00;101819.56;5029758;28;20207;-78
2022/05/27 10:42:45;;;;;;;12.53;3.60;;;;;;;14.42;100.00;101878.00;5027087;28;20459;-76
2022/05/27 10:45:29;;;;;;;11.93;3.27;;;;;;;13.40;100.00;101779.56;5022129;28;20454;-81
2022/05/27 10:48:00;;;;;;;15.23;3.70;;;;;;;14.28;100.00;101877.06;5029108;28;20553;-79
2022/05/27 10:50:50;;;;;;;9.53;2.33;;;;;;;14.21;100.00;101874.34;5028789;28;20951;-82
2022/05/27 10:53:37;;;;;;;10.67;3.43;;;;;;;14.27;100.00;101871.88;5038787;28;20427;-84
2022/05/27 10:56:20;;;;;;;10.07;2.30;;;;;;;14.33;100.00;101817.13;5029087;28;20450;-87
2022/05/27 11:02:05;;;;;;;13.50;3.73;;;;;;;14.22;100.00;101865.19;5029019;28;20442;-86
2022/05/27 11:04:54;;;;;;;11.57;2.60;;;;;;;14.42;100.00;101872.59;5028115;28;21003;-86
2022/05/27 11:08:22;;;;;;;15.17;3.70;;;;;;;14.68;100.00;101864.66;5029340;28;20439;-89
2022/05/27 11:11:33;;;;;;;;;;;;;;;;;;;;;
2022/05/27 11:17:11;;;;;;;12.40;3.10;;;;;;;14.17;100.00;101883.84;5029115;28;20442;-86
2022/05/27 11:20:11;;;;;;;12.93;3.30;;;;;;;14.08;100.00;101862.63;5028194;28;20443;-82
2022/05/27 11:23:06;;;;;;;10.47;3.00;;;;;;;14.26;100.00;101892.63;5028816;28;20938;-80
2022/05/27 11:25:48;;;;;;;16.77;4.23;;;;;;;14.39;100.00;101883.78;4976397;28;20866;-83
2022/05/27 11:28:41;;;;;;;10.13;2.90;;;;;;;14.58;100.00;101888.50;5029011;28;20537;-83
2022/05/27 11:31:27;;;;;;;12.53;2.93;;;;;;;14.37;100.00;101878.56;5026845;28;20557;-79
2022/05/27 11:34:30;;;;;;;11.47;3.27;;;;;;;14.56;100.00;101904.06;5028522;28;20505;-83
2022/05/27 11:36:56;;;;;;;9.20;2.57;;;;;;;14.45;100.00;101880.28;5027877;28;21048;-85
2022/05/27 11:39:47;;;;;;;18.93;4.00;;;;;;;13.95;100.00;101866.06;5029419;28;20510;-85
2022/05/27 11:42:46;;;;;;;13.00;2.80;;;;;;;14.14;100.00;101897.72;5028227;28;20299;-86
2022/05/27 11:45:25;;;;;;;9.20;2.40;;;;;;;14.40;100.00;101923.22;5027064;28;20817;-90
2022/05/27 11:48:06;;;;;;;11.37;2.30;;;;;;;14.72;100.00;101885.84;5028397;28;20463;-86
2022/05/27 11:51:08;;;;;;;12.10;2.73;;;;;;;14.63;100.00;101885.19;5028449;28;20971;-82
2022/05/27 11:54:11;;;;;;;14.07;2.87;;;;;;;15.16;100.00;101893.50;5027226;28;20898;-87
2022/05/27 11:56:58;;;;;;;11.30;3.10;;;;;;;14.71;100.00;101903.09;5029714;28;20443;-81
2022/05/27 11:59:31;;;;;;;15.50;3.50;;;;;;;14.25;100.00;101894.47;5027809;28;20438;-84
2022/05/27 12:02:07;;;;;;;11.30;2.63;;;;;;;14.57;100.00;101892.22;5027089;28;20442;-84
2022/05/27 12:04:40;;;;;;;6.20;1.77;;;;;;;14.51;100.00;101898.38;5028535;28;20984;-84
2022/05/27 12:07:32;;;;;;;9.30;2.40;;;;;;;15.10;100.00;101887.06;5027161;28;20445;-82
2022/05/27 12:10:09;;;;;;;8.80;2.37;;;;;;;14.30;100.00;101815.63;5027342;28;20541;-83
2022/05/27 12:13:05;;;;;;;11.43;2.00;;;;;;;14.27;100.00;101888.91;5027298;28;20423;-87
2022/05/27 12:15:44;;;;;;;7.93;2.40;;;;;;;14.21;100.00;101868.09;5025883;28;20431;-82